Time;durP1;ratioP1;P1;durP2;ratioP2;P2;SDS_P1;SDS_P2;PMS_P1;PMS_P2;Temp;Humidity;BMP_temperature;BMP_pressure;BME280_temperature;BME280_humidity;BME280_pressure;Samples;Min_cycle;Max_cycle;Signal;HPM_P1;HPM_P2
2021/04/06 00:02:09;;;;;;;0.57;0.47;;;-1.60;99.90;;;;;;4992893;28;20445;-85
2021/04/06 00:04:40;;;;;;;1.53;0.73;;;-1.60;99.90;;;;;;4993460;28;20487;-86
2021/04/06 00:07:09;;;;;;;2.20;0.90;;;-1.60;99.90;;;;;;4993607;28;20995;-86
2021/04/06 00:09:37;;;;;;;1.30;0.90;;;-0.80;99.90;;;;;;4993307;28;20502;-88
2021/04/06 00:12:08;;;;;;;1.80;0.90;;;-1.50;99.90;;;;;;4992974;28;20869;-82
2021/04/06 00:14:39;;;;;;;0.97;0.50;;;-1.40;99.90;;;;;;4993733;28;20455;-86
2021/04/06 00:17:09;;;;;;;2.70;0.30;;;-1.50;99.90;;;;;;4992747;28;20460;-84
2021/04/06 00:19:43;;;;;;;1.83;0.80;;;-1.70;99.90;;;;;;4993590;28;20530;-87
2021/04/06 00:22:11;;;;;;;2.87;0.83;;;-1.50;99.90;;;;;;4993389;28;20422;-87
2021/04/06 00:24:42;;;;;;;1.47;1.17;;;-1.40;99.90;;;;;;4993171;28;20476;-82
2021/04/06 00:27:13;;;;;;;3.23;0.90;;;-1.50;99.90;;;;;;4989755;28;20449;-83
2021/04/06 00:29:42;;;;;;;3.90;1.67;;;-1.60;99.90;;;;;;4993010;28;20539;-86
2021/04/06 00:32:10;;;;;;;2.10;1.20;;;-1.60;99.90;;;;;;4992104;28;20447;-83
2021/04/06 00:34:37;;;;;;;4.63;1.30;;;-1.50;99.90;;;;;;4993227;28;20458;-86
2021/04/06 00:37:07;;;;;;;2.93;0.63;;;-1.50;99.90;;;;;;4993241;28;20514;-83
2021/04/06 00:39:36;;;;;;;10.30;1.13;;;-1.60;99.90;;;;;;4993676;28;20461;-88
2021/04/06 00:42:05;;;;;;;1.40;1.27;;;-1.60;99.90;;;;;;4993766;28;20504;-85
2021/04/06 00:44:36;;;;;;;2.63;1.20;;;-2.00;99.90;;;;;;4993825;28;20456;-89
2021/04/06 00:47:05;;;;;;;2.73;1.30;;;-1.60;99.90;;;;;;4992706;28;20464;-88
2021/04/06 00:49:33;;;;;;;0.70;0.70;;;-1.40;99.90;;;;;;4993699;28;20460;-87
2021/04/06 00:52:03;;;;;;;2.47;1.30;;;-1.50;99.90;;;;;;4993620;28;20500;-84
2021/04/06 00:54:30;;;;;;;1.10;0.67;;;-1.40;99.90;;;;;;4993457;28;20472;-87
2021/04/06 00:56:59;;;;;;;1.60;1.30;;;-1.60;99.90;;;;;;4993390;28;20435;-86
2021/04/06 00:59:26;;;;;;;0.60;0.50;;;;;;;;;;4997325;28;20444;-89
2021/04/06 01:01:59;;;;;;;3.43;1.20;;;-1.50;99.90;;;;;;4996257;28;20460;-85
2021/04/06 01:04:27;;;;;;;2.00;1.00;;;-1.50;99.90;;;;;;4997307;28;20464;-85
2021/04/06 01:07:02;;;;;;;2.77;1.70;;;-2.10;99.90;;;;;;4996636;28;20449;-87
2021/04/06 01:09:40;;;;;;;4.90;1.07;;;-1.60;99.90;;;;;;4996415;28;20483;-84
2021/04/06 01:12:07;;;;;;;3.17;1.40;;;-1.90;99.90;;;;;;4996525;28;20530;-83
2021/04/06 01:14:40;;;;;;;1.23;0.87;;;-1.70;99.90;;;;;;4996480;28;20456;-84
2021/04/06 01:17:11;;;;;;;2.43;1.23;;;-1.80;99.90;;;;;;4995079;28;20448;-86
2021/04/06 01:19:42;;;;;;;1.70;0.77;;;-1.40;99.90;;;;;;4993753;28;20442;-90
2021/04/06 01:22:14;;;;;;;4.10;1.80;;;-1.80;99.90;;;;;;4996881;28;20472;-91
2021/04/06 01:24:45;;;;;;;1.03;0.63;;;-1.80;99.90;;;;;;4991553;28;20448;-87
2021/04/06 01:27:14;;;;;;;1.30;1.10;;;-1.70;99.90;;;;;;4997096;28;20782;-84
2021/04/06 01:29:41;;;;;;;6.00;1.40;;;-2.00;99.90;;;;;;4983769;28;20472;-87
2021/04/06 01:32:07;;;;;;;2.90;1.07;;;-1.70;99.90;;;;;;4993609;28;20454;-86
2021/04/06 01:34:34;;;;;;;2.00;1.33;;;-1.90;99.90;;;;;;4994171;28;20545;-85
2021/04/06 01:37:01;;;;;;;1.43;0.70;;;;;;;;;;4996701;28;20442;-86
2021/04/06 01:39:29;;;;;;;7.43;2.20;;;-1.20;99.90;;;;;;4996651;28;20460;-85
2021/04/06 01:42:00;;;;;;;2.20;0.90;;;-2.00;99.90;;;;;;4996578;28;20509;-87
2021/04/06 01:44:27;;;;;;;1.20;0.80;;;-1.70;99.90;;;;;;4992366;28;20813;-87
2021/04/06 01:46:53;;;;;;;0.40;0.40;;;;;;;;;;4995255;28;20459;-88
2021/04/06 01:49:21;;;;;;;2.30;1.40;;;-1.90;99.90;;;;;;4996355;28;20453;-86
2021/04/06 01:51:53;;;;;;;2.37;1.47;;;-2.10;99.90;;;;;;4996188;28;20449;-84
2021/04/06 01:54:20;;;;;;;0.50;0.40;;;-2.30;99.90;;;;;;4996069;28;20496;-88
2021/04/06 01:56:52;;;;;;;5.33;1.50;;;-2.40;99.90;;;;;;4995990;28;20785;-87
2021/04/06 01:59:22;;;;;;;0.93;0.63;;;-2.10;99.90;;;;;;4995908;28;20453;-87
2021/04/06 02:01:52;;;;;;;0.63;0.43;;;-2.10;99.90;;;;;;4995153;28;20455;-86
2021/04/06 02:04:20;;;;;;;1.10;0.80;;;-2.10;99.90;;;;;;4995593;28;20997;-89
2021/04/06 02:06:47;;;;;;;0.93;0.70;;;-2.00;99.90;;;;;;4995937;28;20773;-86
2021/04/06 02:09:14;;;;;;;1.53;0.90;;;-2.20;99.90;;;;;;4995631;28;20957;-84
2021/04/06 02:11:41;;;;;;;2.00;1.17;;;-2.20;99.90;;;;;;4995654;28;20459;-85
2021/04/06 02:14:09;;;;;;;2.10;0.83;;;-2.10;99.90;;;;;;4995745;28;20996;-86
2021/04/06 02:16:47;;;;;;;2.03;1.00;;;-2.30;99.90;;;;;;4994672;28;20446;-86
2021/04/06 02:19:21;;;;;;;1.70;0.93;;;-2.50;99.90;;;;;;4995615;28;20452;-85
2021/04/06 02:21:52;;;;;;;0.40;0.30;;;-2.30;99.90;;;;;;4995556;28;20441;-86
2021/04/06 02:24:30;;;;;;;2.60;0.40;;;-2.10;99.90;;;;;;4995686;28;20456;-84
2021/04/06 02:27:05;;;;;;;1.53;1.37;;;-2.30;99.90;;;;;;4995400;28;20448;-87
2021/04/06 02:29:37;;;;;;;1.27;0.90;;;-2.30;99.90;;;;;;4995271;28;21062;-85
2021/04/06 02:32:11;;;;;;;1.53;0.97;;;-2.20;99.90;;;;;;4992520;28;20946;-87
2021/04/06 02:34:41;;;;;;;2.10;0.90;;;-2.30;99.90;;;;;;4995369;28;20992;-84
2021/04/06 02:37:13;;;;;;;1.10;0.70;;;-2.50;99.90;;;;;;4995179;28;20472;-85
2021/04/06 02:39:39;;;;;;;0.50;0.30;;;-2.30;99.90;;;;;;4995197;28;20465;-88
2021/04/06 02:42:22;;;;;;;3.07;1.93;;;-2.20;99.90;;;;;;4995054;28;20494;-85
2021/04/06 02:44:48;;;;;;;3.23;1.10;;;-2.20;99.90;;;;;;4995060;28;20941;-87
2021/04/06 02:47:16;;;;;;;1.97;1.20;;;-2.30;99.90;;;;;;4994116;28;20895;-88
2021/04/06 02:49:43;;;;;;;0.77;0.60;;;-1.40;99.90;;;;;;4991885;28;20451;-84
2021/04/06 02:52:10;;;;;;;1.40;0.87;;;-2.20;99.90;;;;;;4996005;28;20454;-85
2021/04/06 02:54:36;;;;;;;0.90;0.87;;;-2.30;99.90;;;;;;4995418;28;20530;-87
2021/04/06 02:57:20;;;;;;;2.00;1.03;;;-2.30;99.90;;;;;;4995143;28;20461;-85
2021/04/06 02:59:47;;;;;;;2.10;0.97;;;-2.50;99.90;;;;;;4992019;28;20519;-85
2021/04/06 03:02:14;;;;;;;0.50;0.47;;;;;;;;;;4993717;28;20458;-84
2021/04/06 03:04:42;;;;;;;0.60;0.50;;;-2.40;99.90;;;;;;4994610;28;20480;-86
2021/04/06 03:07:17;;;;;;;2.60;1.33;;;-2.40;99.90;;;;;;4994690;28;20461;-87
2021/04/06 03:09:56;;;;;;;0.60;0.50;;;-2.40;99.90;;;;;;4994593;28;20452;-85
2021/04/06 03:12:28;;;;;;;1.27;0.97;;;-2.30;99.90;;;;;;4995987;28;20475;-85
2021/04/06 03:14:55;;;;;;;1.93;1.73;;;;;;;;;;4998146;28;20474;-83
2021/04/06 03:17:21;;;;;;;0.70;0.40;;;-2.40;99.90;;;;;;4996832;28;20948;-86
2021/04/06 03:19:55;;;;;;;0.50;0.43;;;-2.60;99.90;;;;;;4997461;28;20457;-85
2021/04/06 03:22:21;;;;;;;0.83;0.77;;;-2.50;99.90;;;;;;4997625;28;20459;-83
2021/04/06 03:24:49;;;;;;;4.27;2.13;;;-2.30;99.90;;;;;;4994405;28;20451;-83
2021/04/06 03:27:15;;;;;;;1.17;0.77;;;;;;;;;;4997142;28;20461;-83
2021/04/06 03:29:42;;;;;;;0.80;0.60;;;-2.40;99.90;;;;;;4996426;28;20508;-87
2021/04/06 03:32:09;;;;;;;2.20;0.93;;;-2.40;99.90;;;;;;4994447;28;20452;-87
2021/04/06 03:34:38;;;;;;;5.43;1.57;;;-1.50;99.90;;;;;;4993749;28;20481;-85
2021/04/06 03:37:07;;;;;;;2.80;1.63;;;-2.60;99.90;;;;;;4993910;28;20488;-84
2021/04/06 03:39:34;;;;;;;3.30;1.10;;;-2.10;99.90;;;;;;4994132;28;20737;-84
2021/04/06 03:42:01;;;;;;;2.13;1.63;;;-2.40;99.90;;;;;;4994023;28;20448;-89
2021/04/06 03:44:28;;;;;;;0.63;0.63;;;-2.40;99.90;;;;;;4993877;28;20456;-87
2021/04/06 03:46:57;;;;;;;1.47;1.00;;;-1.80;99.90;;;;;;4992996;28;20456;-85
2021/04/06 03:49:26;;;;;;;4.33;1.97;;;-2.60;99.90;;;;;;4993721;28;20460;-87
2021/04/06 03:51:55;;;;;;;1.23;1.03;;;-2.30;99.90;;;;;;4993915;28;20808;-87
2021/04/06 03:54:38;;;;;;;3.43;1.47;;;-2.40;99.90;;;;;;4990791;28;20511;-84
2021/04/06 03:57:32;;;;;;;0.77;0.77;;;-2.40;99.90;;;;;;4993701;28;20450;-84
2021/04/06 03:59:58;;;;;;;2.20;1.67;;;-1.80;99.90;;;;;;4993465;28;20461;-88
2021/04/06 04:02:25;;;;;;;0.97;0.70;;;-2.50;99.90;;;;;;4989606;28;20509;-85
2021/04/06 04:04:52;;;;;;;0.87;0.60;;;-2.40;99.90;;;;;;4993473;28;20451;-85
2021/04/06 04:07:19;;;;;;;0.97;0.80;;;-2.50;99.90;;;;;;4993656;28;20422;-84
2021/04/06 04:09:46;;;;;;;1.50;1.30;;;-2.40;99.90;;;;;;4975338;28;20522;-84
2021/04/06 04:12:13;;;;;;;4.43;1.37;;;-2.70;99.90;;;;;;4981611;28;20482;-85
2021/04/06 04:14:39;;;;;;;1.30;1.00;;;-2.50;99.90;;;;;;4984058;28;20482;-83
2021/04/06 04:17:06;;;;;;;3.50;2.17;;;-2.60;99.90;;;;;;4981628;28;20900;-85
2021/04/06 04:19:33;;;;;;;0.97;0.90;;;-2.60;99.90;;;;;;4982673;28;20460;-87
2021/04/06 04:21:59;;;;;;;3.50;2.23;;;-2.60;99.90;;;;;;4982093;28;20442;-83
2021/04/06 04:24:26;;;;;;;0.97;0.80;;;-2.40;99.90;;;;;;4987901;28;20458;-85
2021/04/06 04:26:53;;;;;;;3.30;1.80;;;-2.50;99.90;;;;;;4982597;28;20913;-84
2021/04/06 04:29:19;;;;;;;1.20;1.00;;;-2.40;99.90;;;;;;4987120;28;20490;-90
2021/04/06 04:31:48;;;;;;;3.77;1.90;;;-2.20;99.90;;;;;;4985736;28;20518;-82
2021/04/06 04:34:14;;;;;;;2.13;1.37;;;-2.30;99.90;;;;;;4987441;28;21113;-85
2021/04/06 04:36:40;;;;;;;2.10;1.20;;;-1.90;99.90;;;;;;4986636;28;20508;-84
2021/04/06 04:39:07;;;;;;;3.37;1.97;;;-2.30;99.90;;;;;;4985511;28;20473;-85
2021/04/06 04:41:34;;;;;;;1.13;1.03;;;-2.00;99.90;;;;;;4979011;28;20452;-86
2021/04/06 04:44:01;;;;;;;1.70;1.10;;;-2.20;99.90;;;;;;4989025;28;20437;-87
2021/04/06 04:46:28;;;;;;;5.10;1.10;;;-2.00;99.90;;;;;;4985138;28;20452;-84
2021/04/06 04:48:55;;;;;;;1.97;1.00;;;-2.00;99.90;;;;;;4989618;28;20414;-87
2021/04/06 04:51:22;;;;;;;1.87;1.57;;;-2.10;99.90;;;;;;4994588;28;20540;-86
2021/04/06 04:53:48;;;;;;;1.93;1.47;;;-2.10;99.90;;;;;;4997899;28;20489;-89
2021/04/06 04:56:14;;;;;;;1.00;0.90;;;;;;;;;;4997782;28;20467;-86
2021/04/06 04:58:41;;;;;;;5.17;1.90;;;-2.00;99.90;;;;;;4998138;28;20449;-89
2021/04/06 05:01:08;;;;;;;8.03;2.30;;;-2.30;99.90;;;;;;4994266;28;20482;-87
2021/04/06 05:03:34;;;;;;;4.03;2.07;;;-2.10;99.90;;;;;;4995753;28;20472;-88
2021/04/06 05:06:01;;;;;;;2.17;1.47;;;-2.40;99.90;;;;;;4998885;28;20794;-88
2021/04/06 05:08:27;;;;;;;4.57;1.83;;;;;;;;;;4998497;28;20424;-86
2021/04/06 05:10:54;;;;;;;3.63;1.13;;;-2.10;99.90;;;;;;4993481;28;20434;-89
2021/04/06 05:13:20;;;;;;;2.00;0.83;;;;;;;;;;4997233;28;20991;-88
2021/04/06 05:15:47;;;;;;;2.50;1.23;;;-1.80;99.90;;;;;;4996306;28;20452;-89
2021/04/06 05:18:14;;;;;;;2.40;1.80;;;-1.90;99.90;;;;;;4992202;28;20460;-89
2021/04/06 05:20:40;;;;;;;2.73;1.13;;;;;;;;;;4997681;28;20449;-90
2021/04/06 05:23:06;;;;;;;1.40;1.20;;;-1.80;99.90;;;;;;4997773;28;20463;-88
2021/04/06 05:25:33;;;;;;;1.73;1.50;;;;;;;;;;4997775;28;20454;-89
2021/04/06 05:27:59;;;;;;;2.20;1.63;;;-1.80;99.90;;;;;;4997781;28;20500;-86
2021/04/06 05:30:27;;;;;;;1.50;0.63;;;-2.20;99.90;;;;;;4996113;28;20445;-88
2021/04/06 05:32:53;;;;;;;1.60;1.50;;;-1.70;99.90;;;;;;4997176;28;20487;-86
2021/04/06 05:35:21;;;;;;;3.17;1.77;;;-1.10;99.90;;;;;;4996492;28;20471;-87
2021/04/06 05:37:47;;;;;;;1.23;1.13;;;;;;;;;;4997303;28;20461;-84
2021/04/06 05:40:14;;;;;;;2.63;1.13;;;-1.90;99.90;;;;;;4993748;28;20441;-87
2021/04/06 05:42:40;;;;;;;3.90;1.80;;;-1.60;99.90;;;;;;4996250;28;20463;-85
2021/04/06 05:45:09;;;;;;;2.10;1.30;;;-1.70;99.90;;;;;;4995641;28;20871;-85
2021/04/06 05:47:38;;;;;;;2.80;1.53;;;-1.50;99.90;;;;;;4994711;28;20453;-86
2021/04/06 05:50:05;;;;;;;1.07;1.00;;;-1.60;99.90;;;;;;4996103;28;20490;-86
2021/04/06 05:52:33;;;;;;;2.93;1.17;;;-1.80;99.90;;;;;;4996389;28;20793;-85
2021/04/06 05:55:00;;;;;;;5.13;1.20;;;0.10;99.90;;;;;;4996428;28;20477;-86
2021/04/06 05:57:26;;;;;;;4.53;1.83;;;-0.90;99.90;;;;;;4996222;28;20459;-86
2021/04/06 05:59:53;;;;;;;3.37;1.87;;;;;;;;;;4996045;28;20451;-87
2021/04/06 06:02:19;;;;;;;1.40;1.00;;;-1.60;99.90;;;;;;4994508;28;20456;-84
2021/04/06 06:04:46;;;;;;;4.83;2.00;;;;;;;;;;4995805;28;20476;-84
2021/04/06 06:07:12;;;;;;;3.90;1.40;;;-1.30;99.90;;;;;;4995858;28;20805;-84
2021/04/06 06:09:40;;;;;;;2.60;1.20;;;-1.20;99.90;;;;;;4995529;28;20467;-85
2021/04/06 06:12:12;;;;;;;4.07;1.30;;;-1.40;99.90;;;;;;4995489;28;20456;-85
2021/04/06 06:14:39;;;;;;;2.67;1.60;;;-1.40;99.90;;;;;;4995325;28;20504;-85
2021/04/06 06:17:14;;;;;;;2.13;1.30;;;-1.10;99.90;;;;;;4992896;28;20468;-88
2021/04/06 06:19:41;;;;;;;2.57;1.70;;;-1.10;99.90;;;;;;4996452;28;20448;-85
2021/04/06 06:22:13;;;;;;;1.60;1.10;;;-1.10;99.90;;;;;;4996550;28;20944;-86
2021/04/06 06:24:43;;;;;;;3.43;1.70;;;-1.10;99.90;;;;;;4996955;28;20489;-87
2021/04/06 06:27:37;;;;;;;5.33;3.07;;;-0.80;99.90;;;;;;4977347;28;20519;-86
2021/04/06 06:30:23;;;;;;;1.57;1.47;;;-1.10;99.90;;;;;;4982560;28;20914;-87
2021/04/06 06:32:49;;;;;;;1.10;0.77;;;;;;;;;;4986591;28;20457;-87
2021/04/06 06:35:34;;;;;;;5.67;1.20;;;-0.10;99.90;;;;;;4990107;28;20457;-88
2021/04/06 06:38:17;;;;;;;11.60;4.90;;;-0.40;99.90;;;;;;4975608;28;20808;-85
2021/04/06 06:40:46;;;;;;;13.10;5.93;;;-0.80;99.90;;;;;;4978910;28;20456;-84
2021/04/06 06:43:19;;;;;;;6.30;3.13;;;-0.60;99.90;;;;;;4986393;28;20466;-85
2021/04/06 06:45:47;;;;;;;2.10;1.90;;;-0.60;99.90;;;;;;4989612;28;20958;-85
2021/04/06 06:48:26;;;;;;;4.20;2.07;;;-0.40;99.90;;;;;;4984885;28;20463;-88
2021/04/06 06:50:52;;;;;;;4.90;2.40;;;-0.50;99.90;;;;;;4975847;28;20450;-84
2021/04/06 06:53:31;;;;;;;6.60;2.23;;;-0.60;99.90;;;;;;4975380;28;20493;-86
2021/04/06 06:55:58;;;;;;;0.87;0.50;;;-0.50;99.90;;;;;;4974376;28;20453;-84
2021/04/06 06:58:30;;;;;;;1.50;1.40;;;-0.40;99.90;;;;;;4976363;28;20454;-85
2021/04/06 07:00:56;;;;;;;3.33;1.87;;;-0.10;99.90;;;;;;4979612;28;20467;-87
2021/04/06 07:03:23;;;;;;;2.77;1.30;;;-0.30;99.90;;;;;;4983718;28;20488;-86
2021/04/06 07:05:49;;;;;;;2.33;1.53;;;0.40;99.90;;;;;;5006134;23;21019;-83
2021/04/06 07:08:28;;;;;;;5.67;1.90;;;0.00;99.90;;;;;;5003349;28;20437;-86
2021/04/06 07:10:56;;;;;;;1.37;1.03;;;0.00;99.90;;;;;;5003872;28;20446;-85
2021/04/06 07:13:28;;;;;;;6.73;2.80;;;0.10;99.90;;;;;;4985575;28;20474;-87
2021/04/06 07:15:56;;;;;;;2.83;1.17;;;0.70;99.90;;;;;;4978665;28;20960;-90
2021/04/06 07:18:26;;;;;;;9.80;2.40;;;0.10;99.90;;;;;;4984342;28;20509;-88
2021/04/06 07:20:55;;;;;;;8.17;2.50;;;0.00;99.90;;;;;;4982149;28;20491;-90
2021/04/06 07:23:31;;;;;;;1.93;1.20;;;0.30;99.90;;;;;;4977538;28;20807;-90
2021/04/06 07:25:57;;;;;;;1.07;0.73;;;-0.30;99.90;;;;;;4975199;28;20824;-84
2021/04/06 07:28:25;;;;;;;1.43;1.30;;;0.30;99.90;;;;;;4982044;28;20458;-85
2021/04/06 07:30:53;;;;;;;8.13;2.27;;;0.20;99.90;;;;;;4993598;28;20987;-84
2021/04/06 07:33:21;;;;;;;2.10;1.57;;;0.40;99.90;;;;;;4994576;28;20584;-89
2021/04/06 07:35:48;;;;;;;4.07;2.20;;;;;;;;;;4997277;28;20450;-87
2021/04/06 07:38:15;;;;;;;3.40;2.53;;;0.60;99.90;;;;;;4991091;28;20477;-85
2021/04/06 07:40:42;;;;;;;4.77;2.17;;;0.90;99.90;;;;;;4985014;28;20462;-88
2021/04/06 07:43:09;;;;;;;3.30;2.10;;;0.40;99.90;;;;;;4974435;28;20465;-87
2021/04/06 07:45:43;;;;;;;0.63;0.63;;;0.80;99.90;;;;;;4988875;28;20460;-83
2021/04/06 07:48:33;;;;;;;3.03;1.53;;;0.90;99.90;;;;;;4989586;28;20949;-84
2021/04/06 07:51:23;;;;;;;2.33;1.60;;;1.10;99.90;;;;;;4991756;28;20456;-84
2021/04/06 07:53:54;;;;;;;5.17;1.37;;;1.40;99.90;;;;;;4991772;28;20500;-84
2021/04/06 07:56:49;;;;;;;3.67;1.23;;;1.00;99.90;;;;;;4988758;28;20473;-88
2021/04/06 07:59:43;;;;;;;4.23;2.57;;;1.40;99.90;;;;;;4988484;28;20457;-82
2021/04/06 08:02:45;;;;;;;1.90;1.03;;;0.90;99.90;;;;;;4979233;28;20503;-83
2021/04/06 08:05:24;;;;;;;2.80;1.47;;;1.00;99.90;;;;;;5007699;28;20487;-88
2021/04/06 08:07:50;;;;;;;4.37;1.87;;;1.60;99.90;;;;;;4993737;28;20460;-87
2021/04/06 08:10:47;;;;;;;3.63;2.20;;;1.50;99.90;;;;;;4994210;28;20450;-87
2021/04/06 08:13:13;;;;;;;0.83;0.70;;;1.50;99.90;;;;;;4994519;28;20489;-87
2021/04/06 08:15:40;;;;;;;7.10;2.40;;;2.20;99.90;;;;;;4989220;28;20945;-87
2021/04/06 08:18:07;;;;;;;3.10;1.10;;;1.30;99.90;;;;;;4994082;28;20462;-90
2021/04/06 08:20:45;;;;;;;4.43;2.43;;;1.50;99.90;;;;;;4994043;28;20482;-83
2021/04/06 08:23:33;;;;;;;5.07;0.83;;;1.80;99.90;;;;;;4994030;28;20467;-88
2021/04/06 08:26:00;;;;;;;6.83;2.80;;;1.80;99.90;;;;;;4994082;28;20791;-85
2021/04/06 08:28:37;;;;;;;6.70;2.43;;;2.10;99.90;;;;;;4994119;28;20455;-87
2021/04/06 08:31:31;;;;;;;3.67;1.93;;;1.50;99.90;;;;;;4993055;28;20940;-88
2021/04/06 08:34:29;;;;;;;8.07;2.70;;;1.80;99.90;;;;;;4993828;28;20503;-85
2021/04/06 08:37:13;;;;;;;7.57;1.73;;;1.90;99.90;;;;;;4995542;28;20948;-82
2021/04/06 08:39:40;;;;;;;2.90;1.30;;;1.60;99.90;;;;;;4999681;28;20457;-87
2021/04/06 08:42:10;;;;;;;1.70;1.60;;;1.70;99.90;;;;;;4993337;28;21019;-81
2021/04/06 08:44:37;;;;;;;2.63;1.70;;;1.50;99.90;;;;;;5013044;28;20936;-85
2021/04/06 08:47:05;;;;;;;1.50;1.40;;;2.10;99.90;;;;;;5011681;28;20473;-83
2021/04/06 08:49:42;;;;;;;6.50;1.73;;;1.70;99.90;;;;;;5012863;28;20916;-86
2021/04/06 08:52:13;;;;;;;5.97;1.93;;;1.60;99.90;;;;;;5013083;28;20465;-85
2021/04/06 08:54:40;;;;;;;1.53;1.17;;;1.50;99.90;;;;;;5008915;28;20556;-83
2021/04/06 08:57:08;;;;;;;5.57;2.20;;;1.90;99.90;;;;;;4993223;28;20488;-85
2021/04/06 08:59:39;;;;;;;3.00;1.50;;;1.80;99.90;;;;;;4994420;28;20455;-85
2021/04/06 09:02:08;;;;;;;7.43;1.13;;;1.50;99.90;;;;;;4992275;28;20485;-87
2021/04/06 09:04:37;;;;;;;1.30;0.73;;;2.00;99.90;;;;;;4992959;28;21053;-86
2021/04/06 09:07:16;;;;;;;2.60;1.33;;;1.90;99.90;;;;;;4993227;28;21019;-88
2021/04/06 09:09:42;;;;;;;3.20;1.60;;;2.10;99.90;;;;;;5008511;28;20443;-85
2021/04/06 09:12:09;;;;;;;2.93;1.90;;;2.70;99.90;;;;;;4993393;28;20456;-86
2021/04/06 09:14:36;;;;;;;2.17;0.90;;;2.30;99.90;;;;;;4992754;28;20501;-85
2021/04/06 09:17:03;;;;;;;5.83;2.27;;;2.00;99.90;;;;;;4991570;28;20460;-85
2021/04/06 09:19:29;;;;;;;6.37;1.67;;;2.10;99.90;;;;;;4997531;28;20451;-85
2021/04/06 09:21:59;;;;;;;1.57;1.10;;;1.90;99.90;;;;;;5015844;28;20448;-85
2021/04/06 09:24:27;;;;;;;5.40;2.80;;;2.30;99.90;;;;;;5016105;28;20452;-86
2021/04/06 09:26:55;;;;;;;5.07;1.93;;;2.60;99.90;;;;;;5016126;28;20581;-86
2021/04/06 09:29:24;;;;;;;5.83;2.60;;;2.70;99.90;;;;;;5016795;28;20514;-88
2021/04/06 09:31:54;;;;;;;3.17;1.57;;;2.80;99.90;;;;;;5011655;28;20468;-85
2021/04/06 09:34:22;;;;;;;1.77;0.93;;;2.70;99.90;;;;;;5016781;28;21026;-86
2021/04/06 09:36:53;;;;;;;3.27;1.80;;;2.70;99.90;;;;;;5013011;28;20483;-86
2021/04/06 09:39:21;;;;;;;8.13;3.13;;;2.60;99.90;;;;;;5009443;28;20456;-85
2021/04/06 09:41:47;;;;;;;10.30;4.50;;;2.50;99.90;;;;;;5004649;28;20455;-86
2021/04/06 09:44:17;;;;;;;6.13;2.30;;;2.70;99.90;;;;;;5004789;28;20461;-86
2021/04/06 09:46:45;;;;;;;7.20;4.00;;;2.90;99.90;;;;;;5015961;28;20486;-85
2021/04/06 09:49:13;;;;;;;3.13;1.40;;;2.80;99.90;;;;;;5012009;28;20827;-85
2021/04/06 09:51:45;;;;;;;6.43;2.50;;;2.80;99.90;;;;;;5006453;28;20515;-87
2021/04/06 09:54:14;;;;;;;5.20;1.50;;;3.00;99.90;;;;;;5014434;28;20550;-87
2021/04/06 09:56:41;;;;;;;11.53;2.20;;;2.70;99.90;;;;;;5016923;28;20448;-88
2021/04/06 09:59:08;;;;;;;3.07;1.63;;;2.70;99.90;;;;;;4997025;28;20461;-85
2021/04/06 10:01:36;;;;;;;2.80;1.90;;;3.10;99.90;;;;;;4994431;28;20465;-86
2021/04/06 10:04:05;;;;;;;5.17;1.63;;;4.60;99.90;;;;;;4965481;28;20491;-89
2021/04/06 10:06:37;;;;;;;6.60;1.90;;;3.70;99.90;;;;;;5000606;28;20461;-85
2021/04/06 10:09:23;;;;;;;5.50;1.60;;;3.90;99.90;;;;;;4997928;28;20465;-87
2021/04/06 10:11:59;;;;;;;6.20;2.00;;;3.30;99.90;;;;;;5013380;28;20548;-85
2021/04/06 10:14:26;;;;;;;1.80;1.17;;;;;;;;;;5014630;28;21067;-87
2021/04/06 10:16:56;;;;;;;3.30;1.50;;;3.10;99.90;;;;;;5013641;28;20446;-86
2021/04/06 10:19:25;;;;;;;3.53;1.60;;;3.70;99.90;;;;;;5014236;28;20460;-86
2021/04/06 10:22:06;;;;;;;4.50;1.37;;;3.60;99.90;;;;;;5011140;28;20448;-88
2021/04/06 10:24:35;;;;;;;4.80;2.77;;;4.00;99.90;;;;;;5014344;28;20515;-86
2021/04/06 10:27:13;;;;;;;3.80;1.50;;;3.60;99.90;;;;;;5010761;28;20459;-86
2021/04/06 10:29:41;;;;;;;9.73;1.47;;;3.30;99.90;;;;;;5014142;28;20440;-88
2021/04/06 10:32:20;;;;;;;5.07;2.13;;;4.30;99.90;;;;;;5012740;28;20837;-87
2021/04/06 10:34:52;;;;;;;1.20;1.07;;;4.10;99.90;;;;;;5005301;28;20459;-87
2021/04/06 10:37:19;;;;;;;16.10;9.33;;;;;;;;;;5029674;28;20460;-87
2021/04/06 10:39:46;;;;;;;4.80;1.43;;;3.30;99.90;;;;;;5023543;28;21106;-87
2021/04/06 10:42:15;;;;;;;9.73;1.50;;;3.30;99.90;;;;;;5024888;28;20451;-87
2021/04/06 10:44:44;;;;;;;6.27;1.90;;;3.20;99.90;;;;;;5033431;28;20446;-85
2021/04/06 10:47:22;;;;;;;2.40;1.30;;;3.00;99.90;;;;;;5012540;28;20460;-87
2021/04/06 10:49:54;;;;;;;5.60;1.90;;;2.90;99.90;;;;;;5029718;28;20450;-86
2021/04/06 10:52:29;;;;;;;8.67;1.87;;;3.60;99.90;;;;;;5017403;28;20456;-86
2021/04/06 10:54:55;;;;;;;3.40;1.87;;;;;;;;;;5013574;28;20991;-87
2021/04/06 10:57:28;;;;;;;3.30;2.00;;;4.40;99.90;;;;;;5025098;28;20491;-87
2021/04/06 10:59:55;;;;;;;0.80;0.50;;;4.40;99.90;;;;;;5021368;28;20452;-86
2021/04/06 11:02:24;;;;;;;5.00;1.97;;;4.30;99.90;;;;;;5016043;28;20479;-86
2021/04/06 11:04:51;;;;;;;2.90;1.70;;;;;;;;;;5013367;28;20496;-86
2021/04/06 11:07:28;;;;;;;2.63;1.70;;;4.40;99.90;;;;;;5025305;28;20517;-86
2021/04/06 11:09:55;;;;;;;1.43;0.90;;;;;;;;;;5035201;28;20901;-87
2021/04/06 11:12:21;;;;;;;4.20;1.60;;;;;;;;;;5038022;28;20447;-86
2021/04/06 11:14:48;;;;;;;2.50;1.60;;;4.30;99.90;;;;;;5038857;28;21006;-87
2021/04/06 11:17:15;;;;;;;4.43;1.27;;;5.20;99.90;;;;;;5042358;28;20455;-87
2021/04/06 11:19:43;;;;;;;0.70;0.60;;;4.30;99.90;;;;;;5033072;28;20452;-88
2021/04/06 11:22:12;;;;;;;5.00;1.00;;;4.20;99.90;;;;;;5020681;28;20456;-90
2021/04/06 11:24:40;;;;;;;2.10;1.27;;;4.00;99.90;;;;;;5017810;28;20461;-88
2021/04/06 11:27:09;;;;;;;2.40;1.17;;;4.10;99.60;;;;;;5014889;28;20452;-88
2021/04/06 11:29:38;;;;;;;0.97;0.57;;;4.60;99.60;;;;;;5015372;28;20907;-87
2021/04/06 11:32:08;;;;;;;5.13;1.43;;;5.30;98.80;;;;;;5014880;28;20444;-89
2021/04/06 11:34:35;;;;;;;3.83;1.43;;;5.40;99.90;;;;;;5015254;28;20492;-92
2021/04/06 11:37:02;;;;;;;3.27;1.53;;;;;;;;;;5017106;28;20864;-87
2021/04/06 11:39:31;;;;;;;2.80;1.37;;;4.90;99.90;;;;;;5015623;28;20514;-89
2021/04/06 11:41:59;;;;;;;2.53;1.50;;;4.30;99.90;;;;;;5014369;28;20475;-88
2021/04/06 11:44:25;;;;;;;3.57;1.43;;;4.00;99.90;;;;;;5010827;28;20448;-88
2021/04/06 11:46:52;;;;;;;3.10;1.83;;;3.70;99.90;;;;;;5032890;28;20965;-89
2021/04/06 11:49:21;;;;;;;2.80;1.50;;;3.50;99.90;;;;;;5036188;28;20542;-91
2021/04/06 11:51:48;;;;;;;2.10;1.17;;;4.10;99.90;;;;;;5030965;28;20458;-86
2021/04/06 11:54:17;;;;;;;9.80;1.77;;;4.00;99.90;;;;;;5033253;28;20490;-88
2021/04/06 11:56:44;;;;;;;3.07;1.30;;;4.00;99.90;;;;;;5033438;28;20455;-89
2021/04/06 11:59:11;;;;;;;1.37;0.90;;;;;;;;;;5034216;28;20455;-87
2021/04/06 12:01:38;;;;;;;2.50;1.60;;;;;;;;;;5033120;28;20573;-87
2021/04/06 12:04:05;;;;;;;4.50;1.47;;;4.00;99.90;;;;;;5034162;28;20480;-90
2021/04/06 12:06:32;;;;;;;2.73;1.10;;;5.40;99.90;;;;;;5034848;28;20466;-89
2021/04/06 12:08:59;;;;;;;1.23;0.70;;;;;;;;;;5033672;28;20462;-87
2021/04/06 12:11:26;;;;;;;2.70;0.83;;;;;;;;;;5027451;28;20460;-87
2021/04/06 12:13:53;;;;;;;1.20;0.93;;;;;;;;;;5018096;28;20494;-90
2021/04/06 12:16:20;;;;;;;8.83;2.23;;;;;;;;;;5022797;28;20467;-89
2021/04/06 12:18:47;;;;;;;2.23;1.63;;;;;;;;;;5030518;28;20458;-89
2021/04/06 12:21:14;;;;;;;0.83;0.77;;;;;;;;;;5019384;28;20811;-90
2021/04/06 12:23:41;;;;;;;8.57;1.00;;;4.30;95.60;;;;;;5014675;28;20452;-89
2021/04/06 12:26:08;;;;;;;0.93;0.63;;;4.80;95.60;;;;;;5010407;28;20460;-91
2021/04/06 12:28:35;;;;;;;1.90;0.80;;;;;;;;;;5008594;28;20503;-89
2021/04/06 12:31:01;;;;;;;1.50;0.83;;;;;;;;;;5012984;28;20820;-88
2021/04/06 12:33:28;;;;;;;1.30;1.00;;;;;;;;;;5013736;28;20460;-89
2021/04/06 12:35:55;;;;;;;2.73;0.97;;;;;;;;;;5013575;28;20449;-89
2021/04/06 12:38:21;;;;;;;1.13;0.63;;;;;;;;;;5015207;28;20445;-91
2021/04/06 12:40:48;;;;;;;1.10;1.00;;;5.30;93.30;;;;;;5015082;28;20932;-89
2021/04/06 12:43:15;;;;;;;1.80;0.90;;;;;;;;;;5010884;28;20436;-91
2021/04/06 12:45:42;;;;;;;2.10;1.17;;;;;;;;;;5024257;28;20458;-88
2021/04/06 12:48:08;;;;;;;7.07;1.70;;;;;;;;;;5024676;28;20448;-89
2021/04/06 12:50:35;;;;;;;4.00;1.03;;;;;;;;;;5032519;28;20463;-88
2021/04/06 12:53:01;;;;;;;2.40;1.17;;;5.00;99.40;;;;;;5025655;28;20463;-88
2021/04/06 12:55:28;;;;;;;3.27;1.30;;;;;;;;;;5025098;28;20508;-86
2021/04/06 12:57:56;;;;;;;0.60;0.50;;;5.70;91.70;;;;;;5027698;28;20451;-88
2021/04/06 13:00:24;;;;;;;1.27;0.63;;;6.00;89.10;;;;;;5015009;28;20506;-87
2021/04/06 13:02:55;;;;;;;1.77;1.10;;;6.20;90.00;;;;;;5024687;28;20461;-87
2021/04/06 13:05:22;;;;;;;3.17;1.07;;;;;;;;;;5036363;28;20868;-87
2021/04/06 13:07:49;;;;;;;2.10;1.23;;;;;;;;;;5020739;28;20449;-92
2021/04/06 13:10:17;;;;;;;0.67;0.47;;;6.60;94.40;;;;;;5027032;28;20466;-87
2021/04/06 13:12:44;;;;;;;0.40;0.40;;;;;;;;;;5038462;28;20470;-89
2021/04/06 13:15:12;;;;;;;1.83;1.17;;;6.30;88.80;;;;;;5030378;28;20495;-84
2021/04/06 13:17:38;;;;;;;1.10;1.00;;;6.60;99.90;;;;;;5017480;28;20482;-89
2021/04/06 13:20:07;;;;;;;1.63;0.93;;;6.10;83.70;;;;;;5019522;28;20460;-85